sensor_id;sensor_type;location;lat;lon;timestamp;temperature;humidity
3256;DHT22;1640;48.504;9.224;2022-10-22T00:02:24;13.70;99.90
3256;DHT22;1640;48.504;9.224;2022-10-22T00:04:53;13.70;99.90
3256;DHT22;1640;48.504;9.224;2022-10-22T00:07:22;13.90;99.90
3256;DHT22;1640;48.504;9.224;2022-10-22T00:09:49;13.90;99.90
3256;DHT22;1640;48.504;9.224;2022-10-22T00:12:17;14.00;99.90
3256;DHT22;1640;48.504;9.224;2022-10-22T00:14:45;14.00;99.90
3256;DHT22;1640;48.504;9.224;2022-10-22T00:17:13;13.90;99.90
3256;DHT22;1640;48.504;9.224;2022-10-22T00:19:42;13.90;99.90
3256;DHT22;1640;48.504;9.224;2022-10-22T00:22:10;13.90;99.90
3256;DHT22;1640;48.504;9.224;2022-10-22T00:24:38;14.00;99.90
3256;DHT22;1640;48.504;9.224;2022-10-22T00:27:07;14.00;99.90
3256;DHT22;1640;48.504;9.224;2022-10-22T00:29:35;13.90;99.90
3256;DHT22;1640;48.504;9.224;2022-10-22T00:32:04;13.90;99.90
3256;DHT22;1640;48.504;9.224;2022-10-22T00:34:32;13.90;99.90
3256;DHT22;1640;48.504;9.224;2022-10-22T00:37:00;13.90;99.90
3256;DHT22;1640;48.504;9.224;2022-10-22T00:39:28;13.90;99.90
3256;DHT22;1640;48.504;9.224;2022-10-22T00:41:57;13.90;99.90
3256;DHT22;1640;48.504;9.224;2022-10-22T00:47:32;13.80;99.90
3256;DHT22;1640;48.504;9.224;2022-10-22T00:50:01;13.90;99.90
3256;DHT22;1640;48.504;9.224;2022-10-22T00:52:31;13.80;99.90
3256;DHT22;1640;48.504;9.224;2022-10-22T00:55:00;13.80;99.90
3256;DHT22;1640;48.504;9.224;2022-10-22T00:57:27;13.90;99.90
3256;DHT22;1640;48.504;9.224;2022-10-22T00:59:56;13.90;99.90
3256;DHT22;1640;48.504;9.224;2022-10-22T01:02:24;13.90;99.90
3256;DHT22;1640;48.504;9.224;2022-10-22T01:04:52;13.70;99.90
3256;DHT22;1640;48.504;9.224;2022-10-22T01:07:21;13.50;99.90
3256;DHT22;1640;48.504;9.224;2022-10-22T01:10:00;13.50;99.90
3256;DHT22;1640;48.504;9.224;2022-10-22T01:12:35;13.60;99.90
3256;DHT22;1640;48.504;9.224;2022-10-22T01:15:10;13.70;99.90
3256;DHT22;1640;48.504;9.224;2022-10-22T01:17:44;13.80;99.90
3256;DHT22;1640;48.504;9.224;2022-10-22T01:23:19;13.50;99.90
3256;DHT22;1640;48.504;9.224;2022-10-22T01:25:55;13.40;99.90
3256;DHT22;1640;48.504;9.224;2022-10-22T01:28:42;13.40;99.90
3256;DHT22;1640;48.504;9.224;2022-10-22T01:31:15;13.40;99.90
3256;DHT22;1640;48.504;9.224;2022-10-22T01:33:45;13.30;99.90
3256;DHT22;1640;48.504;9.224;2022-10-22T01:36:14;13.30;99.90
3256;DHT22;1640;48.504;9.224;2022-10-22T01:38:44;13.20;99.90
3256;DHT22;1640;48.504;9.224;2022-10-22T01:41:13;13.50;99.90
3256;DHT22;1640;48.504;9.224;2022-10-22T01:43:42;13.50;99.90
3256;DHT22;1640;48.504;9.224;2022-10-22T01:46:11;13.50;99.90
3256;DHT22;1640;48.504;9.224;2022-10-22T01:48:55;13.60;99.90
3256;DHT22;1640;48.504;9.224;2022-10-22T01:51:35;13.50;99.90
3256;DHT22;1640;48.504;9.224;2022-10-22T01:54:14;13.50;99.90
3256;DHT22;1640;48.504;9.224;2022-10-22T01:56:53;13.40;99.90
3256;DHT22;1640;48.504;9.224;2022-10-22T01:59:33;13.40;99.90
3256;DHT22;1640;48.504;9.224;2022-10-22T02:02:07;13.30;99.90
3256;DHT22;1640;48.504;9.224;2022-10-22T02:04:41;13.30;99.90
3256;DHT22;1640;48.504;9.224;2022-10-22T02:07:13;13.30;99.90
3256;DHT22;1640;48.504;9.224;2022-10-22T02:09:42;13.40;99.90
3256;DHT22;1640;48.504;9.224;2022-10-22T02:12:12;13.40;99.90
3256;DHT22;1640;48.504;9.224;2022-10-22T02:14:43;13.40;99.90
3256;DHT22;1640;48.504;9.224;2022-10-22T02:17:14;13.30;99.90
3256;DHT22;1640;48.504;9.224;2022-10-22T02:19:46;13.40;99.90
3256;DHT22;1640;48.504;9.224;2022-10-22T02:22:14;13.40;99.90
3256;DHT22;1640;48.504;9.224;2022-10-22T02:24:42;13.40;99.90
3256;DHT22;1640;48.504;9.224;2022-10-22T02:27:15;13.40;99.90
3256;DHT22;1640;48.504;9.224;2022-10-22T02:29:50;13.20;99.90
3256;DHT22;1640;48.504;9.224;2022-10-22T02:32:25;13.10;99.90
3256;DHT22;1640;48.504;9.224;2022-10-22T02:34:54;13.00;99.90
3256;DHT22;1640;48.504;9.224;2022-10-22T02:37:23;13.00;99.90
3256;DHT22;1640;48.504;9.224;2022-10-22T02:39:52;13.00;99.90
3256;DHT22;1640;48.504;9.224;2022-10-22T02:42:22;13.00;99.90
3256;DHT22;1640;48.504;9.224;2022-10-22T02:44:51;13.10;99.90
3256;DHT22;1640;48.504;9.224;2022-10-22T02:47:19;13.10;99.90
3256;DHT22;1640;48.504;9.224;2022-10-22T02:49:47;13.30;99.90
3256;DHT22;1640;48.504;9.224;2022-10-22T02:52:14;13.10;99.90
3256;DHT22;1640;48.504;9.224;2022-10-22T02:54:42;13.20;99.90
3256;DHT22;1640;48.504;9.224;2022-10-22T02:57:09;13.20;99.90
3256;DHT22;1640;48.504;9.224;2022-10-22T02:59:37;13.20;99.90
3256;DHT22;1640;48.504;9.224;2022-10-22T03:02:06;13.30;99.90
3256;DHT22;1640;48.504;9.224;2022-10-22T03:04:33;13.20;99.90
3256;DHT22;1640;48.504;9.224;2022-10-22T03:07:01;13.10;99.90
3256;DHT22;1640;48.504;9.224;2022-10-22T03:09:28;13.10;99.90
3256;DHT22;1640;48.504;9.224;2022-10-22T03:11:56;13.30;99.90
3256;DHT22;1640;48.504;9.224;2022-10-22T03:14:29;13.30;99.90
3256;DHT22;1640;48.504;9.224;2022-10-22T03:16:56;13.40;99.90
3256;DHT22;1640;48.504;9.224;2022-10-22T03:19:25;13.40;99.90
3256;DHT22;1640;48.504;9.224;2022-10-22T03:21:54;13.40;99.90
3256;DHT22;1640;48.504;9.224;2022-10-22T03:24:27;13.50;99.90
3256;DHT22;1640;48.504;9.224;2022-10-22T03:26:56;13.50;99.90
3256;DHT22;1640;48.504;9.224;2022-10-22T03:29:25;13.50;99.90
3256;DHT22;1640;48.504;9.224;2022-10-22T03:31:53;13.60;99.90
3256;DHT22;1640;48.504;9.224;2022-10-22T03:34:21;13.60;99.90
3256;DHT22;1640;48.504;9.224;2022-10-22T03:36:50;13.60;99.90
3256;DHT22;1640;48.504;9.224;2022-10-22T03:39:20;13.70;99.90
3256;DHT22;1640;48.504;9.224;2022-10-22T03:41:48;13.70;99.90
3256;DHT22;1640;48.504;9.224;2022-10-22T03:44:17;13.70;99.90
3256;DHT22;1640;48.504;9.224;2022-10-22T03:46:44;13.70;99.90
3256;DHT22;1640;48.504;9.224;2022-10-22T03:49:12;13.80;99.90
3256;DHT22;1640;48.504;9.224;2022-10-22T03:51:39;13.90;99.90
3256;DHT22;1640;48.504;9.224;2022-10-22T03:54:08;13.80;99.90
3256;DHT22;1640;48.504;9.224;2022-10-22T03:56:35;13.80;99.90
3256;DHT22;1640;48.504;9.224;2022-10-22T03:59:03;13.80;99.90
3256;DHT22;1640;48.504;9.224;2022-10-22T04:01:31;13.80;99.90
3256;DHT22;1640;48.504;9.224;2022-10-22T04:03:58;13.60;99.90
3256;DHT22;1640;48.504;9.224;2022-10-22T04:06:25;13.60;99.90
3256;DHT22;1640;48.504;9.224;2022-10-22T04:08:55;13.70;99.90
3256;DHT22;1640;48.504;9.224;2022-10-22T04:11:24;13.60;99.90
3256;DHT22;1640;48.504;9.224;2022-10-22T04:13:51;13.60;99.90
3256;DHT22;1640;48.504;9.224;2022-10-22T04:16:20;13.50;99.90
3256;DHT22;1640;48.504;9.224;2022-10-22T04:18:49;13.50;99.90
3256;DHT22;1640;48.504;9.224;2022-10-22T04:21:17;13.60;99.90
3256;DHT22;1640;48.504;9.224;2022-10-22T04:23:46;13.50;99.90
3256;DHT22;1640;48.504;9.224;2022-10-22T04:26:15;13.40;99.90
3256;DHT22;1640;48.504;9.224;2022-10-22T04:28:45;13.40;99.90
3256;DHT22;1640;48.504;9.224;2022-10-22T04:31:14;13.40;99.90
3256;DHT22;1640;48.504;9.224;2022-10-22T04:33:42;13.30;99.90
3256;DHT22;1640;48.504;9.224;2022-10-22T04:36:12;13.20;99.90
3256;DHT22;1640;48.504;9.224;2022-10-22T04:38:40;13.20;99.90
3256;DHT22;1640;48.504;9.224;2022-10-22T04:41:10;13.30;99.90
3256;DHT22;1640;48.504;9.224;2022-10-22T04:43:38;13.30;99.90
3256;DHT22;1640;48.504;9.224;2022-10-22T04:46:07;13.30;99.90
3256;DHT22;1640;48.504;9.224;2022-10-22T04:48:35;13.20;99.90
3256;DHT22;1640;48.504;9.224;2022-10-22T04:51:03;13.10;99.90
3256;DHT22;1640;48.504;9.224;2022-10-22T04:53:31;13.10;99.90
3256;DHT22;1640;48.504;9.224;2022-10-22T04:56:07;13.10;99.90
3256;DHT22;1640;48.504;9.224;2022-10-22T04:58:35;13.00;99.90
3256;DHT22;1640;48.504;9.224;2022-10-22T05:01:10;12.90;99.90
3256;DHT22;1640;48.504;9.224;2022-10-22T05:03:37;12.90;99.90
3256;DHT22;1640;48.504;9.224;2022-10-22T05:06:05;12.80;99.90
3256;DHT22;1640;48.504;9.224;2022-10-22T05:08:33;12.80;99.90
3256;DHT22;1640;48.504;9.224;2022-10-22T05:11:00;12.80;99.90
3256;DHT22;1640;48.504;9.224;2022-10-22T05:13:36;12.80;99.90
3256;DHT22;1640;48.504;9.224;2022-10-22T05:16:03;12.80;99.90
3256;DHT22;1640;48.504;9.224;2022-10-22T05:18:34;12.80;99.90
3256;DHT22;1640;48.504;9.224;2022-10-22T05:21:03;12.90;99.90
3256;DHT22;1640;48.504;9.224;2022-10-22T05:23:30;12.90;99.90
3256;DHT22;1640;48.504;9.224;2022-10-22T05:26:01;12.90;99.90
3256;DHT22;1640;48.504;9.224;2022-10-22T05:28:28;12.90;99.90
3256;DHT22;1640;48.504;9.224;2022-10-22T05:30:58;13.00;99.90
3256;DHT22;1640;48.504;9.224;2022-10-22T05:33:27;13.10;99.90
3256;DHT22;1640;48.504;9.224;2022-10-22T05:35:56;13.20;99.90
3256;DHT22;1640;48.504;9.224;2022-10-22T05:38:24;13.20;99.90
3256;DHT22;1640;48.504;9.224;2022-10-22T05:40:58;13.20;99.90
3256;DHT22;1640;48.504;9.224;2022-10-22T05:43:26;13.30;99.90
3256;DHT22;1640;48.504;9.224;2022-10-22T05:45:53;13.30;99.90
3256;DHT22;1640;48.504;9.224;2022-10-22T05:48:21;13.40;99.90
3256;DHT22;1640;48.504;9.224;2022-10-22T05:50:48;13.40;99.90
3256;DHT22;1640;48.504;9.224;2022-10-22T05:53:18;13.40;99.90
3256;DHT22;1640;48.504;9.224;2022-10-22T05:55:45;13.40;99.90
3256;DHT22;1640;48.504;9.224;2022-10-22T05:58:13;13.40;99.90
3256;DHT22;1640;48.504;9.224;2022-10-22T06:00:40;13.40;99.90
3256;DHT22;1640;48.504;9.224;2022-10-22T06:03:08;13.30;99.90
3256;DHT22;1640;48.504;9.224;2022-10-22T06:05:36;13.40;99.90
3256;DHT22;1640;48.504;9.224;2022-10-22T06:08:04;13.40;99.90
3256;DHT22;1640;48.504;9.224;2022-10-22T06:10:33;13.40;99.90
3256;DHT22;1640;48.504;9.224;2022-10-22T06:13:01;13.40;99.90
3256;DHT22;1640;48.504;9.224;2022-10-22T06:15:32;13.30;99.90
3256;DHT22;1640;48.504;9.224;2022-10-22T06:17:59;13.30;99.90
3256;DHT22;1640;48.504;9.224;2022-10-22T06:20:27;13.30;99.90
3256;DHT22;1640;48.504;9.224;2022-10-22T06:22:54;13.40;99.90
3256;DHT22;1640;48.504;9.224;2022-10-22T06:25:22;13.30;99.90
3256;DHT22;1640;48.504;9.224;2022-10-22T06:27:51;13.30;99.90
3256;DHT22;1640;48.504;9.224;2022-10-22T06:30:18;13.20;99.90
3256;DHT22;1640;48.504;9.224;2022-10-22T06:32:45;13.30;99.90
3256;DHT22;1640;48.504;9.224;2022-10-22T06:35:13;13.30;99.90
3256;DHT22;1640;48.504;9.224;2022-10-22T06:37:40;13.30;99.90
3256;DHT22;1640;48.504;9.224;2022-10-22T06:40:09;13.30;99.90
3256;DHT22;1640;48.504;9.224;2022-10-22T06:42:37;13.40;99.90
3256;DHT22;1640;48.504;9.224;2022-10-22T06:45:07;13.40;99.90
3256;DHT22;1640;48.504;9.224;2022-10-22T06:47:35;13.50;99.90
3256;DHT22;1640;48.504;9.224;2022-10-22T06:50:03;13.70;99.90
3256;DHT22;1640;48.504;9.224;2022-10-22T06:52:30;13.80;99.90
3256;DHT22;1640;48.504;9.224;2022-10-22T06:54:58;13.90;99.90
3256;DHT22;1640;48.504;9.224;2022-10-22T06:57:25;13.90;99.90
3256;DHT22;1640;48.504;9.224;2022-10-22T06:59:53;13.80;99.90
3256;DHT22;1640;48.504;9.224;2022-10-22T07:02:22;13.90;99.90
3256;DHT22;1640;48.504;9.224;2022-10-22T07:04:49;13.80;99.90
3256;DHT22;1640;48.504;9.224;2022-10-22T07:07:17;13.80;99.90
3256;DHT22;1640;48.504;9.224;2022-10-22T07:09:44;13.70;99.90
3256;DHT22;1640;48.504;9.224;2022-10-22T07:12:14;13.70;99.90
3256;DHT22;1640;48.504;9.224;2022-10-22T07:14:42;13.70;99.90
3256;DHT22;1640;48.504;9.224;2022-10-22T07:17:09;13.80;99.90
3256;DHT22;1640;48.504;9.224;2022-10-22T07:19:38;13.80;99.90
3256;DHT22;1640;48.504;9.224;2022-10-22T07:22:05;13.80;99.90
3256;DHT22;1640;48.504;9.224;2022-10-22T07:24:33;13.80;99.90
3256;DHT22;1640;48.504;9.224;2022-10-22T07:27:00;13.90;99.90
3256;DHT22;1640;48.504;9.224;2022-10-22T07:29:28;14.10;99.90
3256;DHT22;1640;48.504;9.224;2022-10-22T07:31:55;14.20;99.90
3256;DHT22;1640;48.504;9.224;2022-10-22T07:34:23;14.30;99.90
3256;DHT22;1640;48.504;9.224;2022-10-22T07:36:52;14.40;99.90
3256;DHT22;1640;48.504;9.224;2022-10-22T07:39:19;14.50;99.90
3256;DHT22;1640;48.504;9.224;2022-10-22T07:41:46;14.40;99.90
3256;DHT22;1640;48.504;9.224;2022-10-22T07:44:14;14.50;99.90
3256;DHT22;1640;48.504;9.224;2022-10-22T07:46:41;14.70;99.90
3256;DHT22;1640;48.504;9.224;2022-10-22T07:49:09;14.60;99.90
3256;DHT22;1640;48.504;9.224;2022-10-22T07:51:36;14.80;99.90
3256;DHT22;1640;48.504;9.224;2022-10-22T07:54:05;15.00;99.90
3256;DHT22;1640;48.504;9.224;2022-10-22T07:56:32;15.10;99.90
3256;DHT22;1640;48.504;9.224;2022-10-22T07:59:00;15.10;99.90
3256;DHT22;1640;48.504;9.224;2022-10-22T08:01:27;15.20;99.90
3256;DHT22;1640;48.504;9.224;2022-10-22T08:03:54;15.30;99.90
3256;DHT22;1640;48.504;9.224;2022-10-22T08:06:22;15.60;99.90
3256;DHT22;1640;48.504;9.224;2022-10-22T08:08:49;15.60;99.90
3256;DHT22;1640;48.504;9.224;2022-10-22T08:11:18;15.60;99.90
3256;DHT22;1640;48.504;9.224;2022-10-22T08:13:45;15.60;99.90
3256;DHT22;1640;48.504;9.224;2022-10-22T08:16:13;15.70;99.90
3256;DHT22;1640;48.504;9.224;2022-10-22T08:18:41;15.80;99.90
3256;DHT22;1640;48.504;9.224;2022-10-22T08:21:09;15.90;99.90
3256;DHT22;1640;48.504;9.224;2022-10-22T08:23:36;16.10;99.90
3256;DHT22;1640;48.504;9.224;2022-10-22T08:26:04;16.20;99.90
3256;DHT22;1640;48.504;9.224;2022-10-22T08:28:34;16.40;99.90
3256;DHT22;1640;48.504;9.224;2022-10-22T08:31:02;16.40;99.90
3256;DHT22;1640;48.504;9.224;2022-10-22T08:33:30;16.40;99.90
3256;DHT22;1640;48.504;9.224;2022-10-22T08:35:57;16.50;99.90
3256;DHT22;1640;48.504;9.224;2022-10-22T08:38:24;16.50;1.20
3256;DHT22;1640;48.504;9.224;2022-10-22T08:41:03;16.60;6.60
3256;DHT22;1640;48.504;9.224;2022-10-22T08:43:42;16.50;4.20
3256;DHT22;1640;48.504;9.224;2022-10-22T08:49:06;16.60;1.60
3256;DHT22;1640;48.504;9.224;2022-10-22T08:51:36;16.60;99.90
3256;DHT22;1640;48.504;9.224;2022-10-22T08:54:16;16.50;99.90
3256;DHT22;1640;48.504;9.224;2022-10-22T08:56:52;16.60;99.90
3256;DHT22;1640;48.504;9.224;2022-10-22T08:59:26;16.60;99.90
3256;DHT22;1640;48.504;9.224;2022-10-22T09:01:55;16.60;99.90
3256;DHT22;1640;48.504;9.224;2022-10-22T09:04:27;16.60;99.90
3256;DHT22;1640;48.504;9.224;2022-10-22T09:06:58;16.60;4.20
3256;DHT22;1640;48.504;9.224;2022-10-22T09:09:28;16.60;0.50
3256;DHT22;1640;48.504;9.224;2022-10-22T09:11:59;16.60;99.90
3256;DHT22;1640;48.504;9.224;2022-10-22T09:14:28;16.70;99.90
3256;DHT22;1640;48.504;9.224;2022-10-22T09:17:11;16.70;99.90
3256;DHT22;1640;48.504;9.224;2022-10-22T09:19:46;16.80;2.40
3256;DHT22;1640;48.504;9.224;2022-10-22T09:22:26;16.80;6.10
3256;DHT22;1640;48.504;9.224;2022-10-22T09:25:04;16.90;2.70
3256;DHT22;1640;48.504;9.224;2022-10-22T09:27:37;17.00;99.90
3256;DHT22;1640;48.504;9.224;2022-10-22T09:30:12;17.00;7.10
3256;DHT22;1640;48.504;9.224;2022-10-22T09:32:41;17.00;8.50
3256;DHT22;1640;48.504;9.224;2022-10-22T09:35:10;17.10;10.20
3256;DHT22;1640;48.504;9.224;2022-10-22T09:37:47;17.10;10.60
3256;DHT22;1640;48.504;9.224;2022-10-22T09:40:16;17.20;13.70
3256;DHT22;1640;48.504;9.224;2022-10-22T09:42:44;17.20;10.70
3256;DHT22;1640;48.504;9.224;2022-10-22T09:45:18;17.20;14.50
3256;DHT22;1640;48.504;9.224;2022-10-22T09:47:46;17.20;16.30
3256;DHT22;1640;48.504;9.224;2022-10-22T09:50:25;17.30;12.80
3256;DHT22;1640;48.504;9.224;2022-10-22T09:52:57;17.30;19.90
3256;DHT22;1640;48.504;9.224;2022-10-22T09:55:25;17.40;18.00
3256;DHT22;1640;48.504;9.224;2022-10-22T09:57:54;17.40;11.30
3256;DHT22;1640;48.504;9.224;2022-10-22T10:00:24;17.50;19.30
3256;DHT22;1640;48.504;9.224;2022-10-22T10:02:53;17.60;18.90
3256;DHT22;1640;48.504;9.224;2022-10-22T10:05:27;17.70;17.40
3256;DHT22;1640;48.504;9.224;2022-10-22T10:07:55;17.70;33.10
3256;DHT22;1640;48.504;9.224;2022-10-22T10:10:33;17.80;28.10
3256;DHT22;1640;48.504;9.224;2022-10-22T10:13:09;17.80;26.10
3256;DHT22;1640;48.504;9.224;2022-10-22T10:15:52;17.60;32.60
3256;DHT22;1640;48.504;9.224;2022-10-22T10:18:27;17.50;34.90
3256;DHT22;1640;48.504;9.224;2022-10-22T10:21:02;17.70;30.80
3256;DHT22;1640;48.504;9.224;2022-10-22T10:23:35;17.70;33.70
3256;DHT22;1640;48.504;9.224;2022-10-22T10:26:11;17.70;36.10
3256;DHT22;1640;48.504;9.224;2022-10-22T10:28:52;17.60;39.60
3256;DHT22;1640;48.504;9.224;2022-10-22T10:31:32;17.50;36.00
3256;DHT22;1640;48.504;9.224;2022-10-22T10:34:09;17.40;33.40
3256;DHT22;1640;48.504;9.224;2022-10-22T10:36:44;17.50;37.70
3256;DHT22;1640;48.504;9.224;2022-10-22T10:39:19;17.60;45.20
3256;DHT22;1640;48.504;9.224;2022-10-22T10:41:55;17.60;42.90
3256;DHT22;1640;48.504;9.224;2022-10-22T10:44:38;17.50;35.00
3256;DHT22;1640;48.504;9.224;2022-10-22T10:47:22;17.60;37.60
3256;DHT22;1640;48.504;9.224;2022-10-22T10:49:53;17.60;44.40
3256;DHT22;1640;48.504;9.224;2022-10-22T10:52:32;17.70;38.00
3256;DHT22;1640;48.504;9.224;2022-10-22T10:55:12;17.80;45.50
3256;DHT22;1640;48.504;9.224;2022-10-22T10:57:48;18.00;48.90
3256;DHT22;1640;48.504;9.224;2022-10-22T11:00:19;18.20;51.00
3256;DHT22;1640;48.504;9.224;2022-10-22T11:05:50;18.20;50.90
3256;DHT22;1640;48.504;9.224;2022-10-22T11:08:21;18.10;52.00
3256;DHT22;1640;48.504;9.224;2022-10-22T11:10:55;18.00;50.90
3256;DHT22;1640;48.504;9.224;2022-10-22T11:13:28;18.20;54.60
3256;DHT22;1640;48.504;9.224;2022-10-22T11:15:59;18.20;57.40
3256;DHT22;1640;48.504;9.224;2022-10-22T11:18:33;18.20;58.40
3256;DHT22;1640;48.504;9.224;2022-10-22T11:21:13;18.30;56.10
3256;DHT22;1640;48.504;9.224;2022-10-22T11:23:47;18.40;56.10
3256;DHT22;1640;48.504;9.224;2022-10-22T11:26:26;18.40;57.80
3256;DHT22;1640;48.504;9.224;2022-10-22T11:28:57;18.40;61.10
3256;DHT22;1640;48.504;9.224;2022-10-22T11:31:27;18.40;60.90
3256;DHT22;1640;48.504;9.224;2022-10-22T11:34:03;18.50;60.70
3256;DHT22;1640;48.504;9.224;2022-10-22T11:36:33;18.70;65.70
3256;DHT22;1640;48.504;9.224;2022-10-22T11:39:02;18.70;66.30
3256;DHT22;1640;48.504;9.224;2022-10-22T11:41:31;18.90;68.80
3256;DHT22;1640;48.504;9.224;2022-10-22T11:44:09;19.00;67.80
3256;DHT22;1640;48.504;9.224;2022-10-22T11:46:42;18.90;68.90
3256;DHT22;1640;48.504;9.224;2022-10-22T11:49:21;19.00;68.00
3256;DHT22;1640;48.504;9.224;2022-10-22T11:51:50;19.00;64.50
3256;DHT22;1640;48.504;9.224;2022-10-22T11:54:45;19.10;65.70
3256;DHT22;1640;48.504;9.224;2022-10-22T11:57:21;19.10;68.20
3256;DHT22;1640;48.504;9.224;2022-10-22T11:59:53;19.10;66.30
3256;DHT22;1640;48.504;9.224;2022-10-22T12:08:24;19.20;68.00
3256;DHT22;1640;48.504;9.224;2022-10-22T12:11:04;19.00;68.30
3256;DHT22;1640;48.504;9.224;2022-10-22T12:14:10;19.00;70.50
3256;DHT22;1640;48.504;9.224;2022-10-22T12:16:42;18.80;69.90
3256;DHT22;1640;48.504;9.224;2022-10-22T12:19:15;18.80;68.50
3256;DHT22;1640;48.504;9.224;2022-10-22T12:21:48;18.80;68.30
3256;DHT22;1640;48.504;9.224;2022-10-22T12:24:23;18.80;68.30
3256;DHT22;1640;48.504;9.224;2022-10-22T12:26:51;18.90;68.80
3256;DHT22;1640;48.504;9.224;2022-10-22T12:29:20;18.90;69.30
3256;DHT22;1640;48.504;9.224;2022-10-22T12:31:49;19.10;68.90
3256;DHT22;1640;48.504;9.224;2022-10-22T12:34:19;19.20;71.20
3256;DHT22;1640;48.504;9.224;2022-10-22T12:36:49;19.10;71.90
3256;DHT22;1640;48.504;9.224;2022-10-22T12:39:21;19.20;72.90
3256;DHT22;1640;48.504;9.224;2022-10-22T12:41:48;19.20;72.10
3256;DHT22;1640;48.504;9.224;2022-10-22T12:44:18;19.10;72.30
3256;DHT22;1640;48.504;9.224;2022-10-22T12:46:47;19.20;72.20
3256;DHT22;1640;48.504;9.224;2022-10-22T12:49:19;19.30;72.20
3256;DHT22;1640;48.504;9.224;2022-10-22T12:51:47;19.30;71.50
3256;DHT22;1640;48.504;9.224;2022-10-22T12:54:22;19.30;71.60
3256;DHT22;1640;48.504;9.224;2022-10-22T12:56:52;19.30;71.80
3256;DHT22;1640;48.504;9.224;2022-10-22T12:59:21;19.30;71.90
3256;DHT22;1640;48.504;9.224;2022-10-22T13:01:50;19.40;72.10
3256;DHT22;1640;48.504;9.224;2022-10-22T13:04:21;19.40;72.20
3256;DHT22;1640;48.504;9.224;2022-10-22T13:06:50;19.40;72.50
3256;DHT22;1640;48.504;9.224;2022-10-22T13:09:22;19.50;72.20
3256;DHT22;1640;48.504;9.224;2022-10-22T13:11:53;19.50;71.90
3256;DHT22;1640;48.504;9.224;2022-10-22T13:14:27;19.40;71.90
3256;DHT22;1640;48.504;9.224;2022-10-22T13:17:07;19.40;70.30
3256;DHT22;1640;48.504;9.224;2022-10-22T13:19:38;19.40;71.50
3256;DHT22;1640;48.504;9.224;2022-10-22T13:22:24;19.50;71.20
3256;DHT22;1640;48.504;9.224;2022-10-22T13:24:54;19.40;70.80
3256;DHT22;1640;48.504;9.224;2022-10-22T13:27:24;19.50;70.20
3256;DHT22;1640;48.504;9.224;2022-10-22T13:29:52;19.50;70.20
3256;DHT22;1640;48.504;9.224;2022-10-22T13:32:28;19.60;69.60
3256;DHT22;1640;48.504;9.224;2022-10-22T13:34:58;19.50;70.20
3256;DHT22;1640;48.504;9.224;2022-10-22T13:37:27;19.50;69.80
3256;DHT22;1640;48.504;9.224;2022-10-22T13:39:57;19.60;70.50
3256;DHT22;1640;48.504;9.224;2022-10-22T13:42:25;19.60;71.50
3256;DHT22;1640;48.504;9.224;2022-10-22T13:44:53;19.60;71.20
3256;DHT22;1640;48.504;9.224;2022-10-22T13:47:25;19.60;70.90
3256;DHT22;1640;48.504;9.224;2022-10-22T13:49:56;19.60;71.90
3256;DHT22;1640;48.504;9.224;2022-10-22T13:52:28;19.50;72.10
3256;DHT22;1640;48.504;9.224;2022-10-22T13:54:59;19.50;71.50
3256;DHT22;1640;48.504;9.224;2022-10-22T13:57:26;19.50;72.10
3256;DHT22;1640;48.504;9.224;2022-10-22T13:59:53;19.50;72.20
3256;DHT22;1640;48.504;9.224;2022-10-22T14:02:21;19.60;71.50
3256;DHT22;1640;48.504;9.224;2022-10-22T14:04:50;19.50;71.10
3256;DHT22;1640;48.504;9.224;2022-10-22T14:07:18;19.50;71.60
3256;DHT22;1640;48.504;9.224;2022-10-22T14:09:46;19.60;69.60
3256;DHT22;1640;48.504;9.224;2022-10-22T14:12:16;19.60;70.20
3256;DHT22;1640;48.504;9.224;2022-10-22T14:14:43;19.70;69.90
3256;DHT22;1640;48.504;9.224;2022-10-22T14:17:12;19.60;69.60
3256;DHT22;1640;48.504;9.224;2022-10-22T14:19:43;19.60;69.60
3256;DHT22;1640;48.504;9.224;2022-10-22T14:22:15;19.70;68.60
3256;DHT22;1640;48.504;9.224;2022-10-22T14:24:43;19.60;69.30
3256;DHT22;1640;48.504;9.224;2022-10-22T14:27:12;19.60;69.80
3256;DHT22;1640;48.504;9.224;2022-10-22T14:29:41;19.50;70.20
3256;DHT22;1640;48.504;9.224;2022-10-22T14:32:12;19.50;70.80
3256;DHT22;1640;48.504;9.224;2022-10-22T14:34:41;19.50;70.90
3256;DHT22;1640;48.504;9.224;2022-10-22T14:37:14;19.50;71.30
3256;DHT22;1640;48.504;9.224;2022-10-22T14:39:43;19.50;71.10
3256;DHT22;1640;48.504;9.224;2022-10-22T14:42:12;19.50;71.50
3256;DHT22;1640;48.504;9.224;2022-10-22T14:44:43;19.50;71.90
3256;DHT22;1640;48.504;9.224;2022-10-22T14:47:10;19.60;70.90
3256;DHT22;1640;48.504;9.224;2022-10-22T14:49:38;19.70;71.30
3256;DHT22;1640;48.504;9.224;2022-10-22T14:52:05;19.70;71.10
3256;DHT22;1640;48.504;9.224;2022-10-22T14:54:33;19.60;71.50
3256;DHT22;1640;48.504;9.224;2022-10-22T14:57:01;19.50;71.10
3256;DHT22;1640;48.504;9.224;2022-10-22T14:59:29;19.50;70.90
3256;DHT22;1640;48.504;9.224;2022-10-22T15:01:58;19.50;70.00
3256;DHT22;1640;48.504;9.224;2022-10-22T15:04:25;19.50;70.50
3256;DHT22;1640;48.504;9.224;2022-10-22T15:06:53;19.50;69.80
3256;DHT22;1640;48.504;9.224;2022-10-22T15:09:22;19.40;68.90
3256;DHT22;1640;48.504;9.224;2022-10-22T15:11:50;19.30;68.50
3256;DHT22;1640;48.504;9.224;2022-10-22T15:14:17;19.30;69.60
3256;DHT22;1640;48.504;9.224;2022-10-22T15:16:45;19.30;69.80
3256;DHT22;1640;48.504;9.224;2022-10-22T15:19:13;19.30;70.20
3256;DHT22;1640;48.504;9.224;2022-10-22T15:21:41;19.30;70.00
3256;DHT22;1640;48.504;9.224;2022-10-22T15:24:08;19.30;70.00
3256;DHT22;1640;48.504;9.224;2022-10-22T15:26:36;19.30;70.50
3256;DHT22;1640;48.504;9.224;2022-10-22T15:29:04;19.20;70.80
3256;DHT22;1640;48.504;9.224;2022-10-22T15:31:45;19.20;71.30
3256;DHT22;1640;48.504;9.224;2022-10-22T15:34:18;19.10;70.80
3256;DHT22;1640;48.504;9.224;2022-10-22T15:36:45;19.00;71.20
3256;DHT22;1640;48.504;9.224;2022-10-22T15:39:13;19.00;70.30
3256;DHT22;1640;48.504;9.224;2022-10-22T15:41:40;18.90;70.50
3256;DHT22;1640;48.504;9.224;2022-10-22T15:44:14;18.90;70.90
3256;DHT22;1640;48.504;9.224;2022-10-22T15:46:41;18.80;70.80
3256;DHT22;1640;48.504;9.224;2022-10-22T15:49:09;18.70;71.80
3256;DHT22;1640;48.504;9.224;2022-10-22T15:51:38;18.60;71.80
3256;DHT22;1640;48.504;9.224;2022-10-22T15:54:06;18.50;72.20
3256;DHT22;1640;48.504;9.224;2022-10-22T15:56:33;18.30;72.30
3256;DHT22;1640;48.504;9.224;2022-10-22T15:59:02;18.20;72.20
3256;DHT22;1640;48.504;9.224;2022-10-22T16:01:30;18.00;71.90
3256;DHT22;1640;48.504;9.224;2022-10-22T16:03:58;17.80;71.20
3256;DHT22;1640;48.504;9.224;2022-10-22T16:06:28;17.60;71.20
3256;DHT22;1640;48.504;9.224;2022-10-22T16:09:00;17.60;67.20
3256;DHT22;1640;48.504;9.224;2022-10-22T16:11:28;17.40;64.60
3256;DHT22;1640;48.504;9.224;2022-10-22T16:13:57;17.30;61.70
3256;DHT22;1640;48.504;9.224;2022-10-22T16:16:27;17.10;60.00
3256;DHT22;1640;48.504;9.224;2022-10-22T16:18:55;17.00;55.50
3256;DHT22;1640;48.504;9.224;2022-10-22T16:21:23;16.70;55.10
3256;DHT22;1640;48.504;9.224;2022-10-22T16:23:51;16.50;53.30
3256;DHT22;1640;48.504;9.224;2022-10-22T16:26:20;16.40;49.00
3256;DHT22;1640;48.504;9.224;2022-10-22T16:28:47;16.20;39.10
3256;DHT22;1640;48.504;9.224;2022-10-22T16:31:16;16.10;31.80
3256;DHT22;1640;48.504;9.224;2022-10-22T16:33:45;15.90;28.40
3256;DHT22;1640;48.504;9.224;2022-10-22T16:36:14;15.80;29.40
3256;DHT22;1640;48.504;9.224;2022-10-22T16:38:43;15.70;27.20
3256;DHT22;1640;48.504;9.224;2022-10-22T16:41:12;15.60;25.50